createdAt,value
2022-12-08T00:02:23.804Z,100253.41
2022-12-08T00:05:45.948Z,100254.44
2022-12-08T00:09:07.864Z,100248.59
2022-12-08T00:12:18.448Z,100238.66
2022-12-08T00:15:21.097Z,100238.81
2022-12-08T00:18:25.255Z,100239.78
2022-12-08T00:21:29.097Z,100234.44
2022-12-08T00:24:42.446Z,100236.66
2022-12-08T00:27:45.360Z,100226.25
2022-12-08T00:30:48.477Z,100235.94
2022-12-08T00:33:51.235Z,100235.41
2022-12-08T00:36:54.198Z,100237.63
2022-12-08T00:39:56.935Z,100240.34
2022-12-08T00:43:01.488Z,100237.06
2022-12-08T00:46:04.247Z,100242.62
2022-12-08T00:49:07.353Z,100238.72
2022-12-08T00:52:10.279Z,100239.12
2022-12-08T00:55:13.511Z,100240.44
2022-12-08T00:58:16.188Z,100240.97
2022-12-08T01:01:19.256Z,100246.38
2022-12-08T01:04:22.277Z,100243.25
2022-12-08T01:07:28.325Z,100244.88
2022-12-08T01:10:31.040Z,100243.25
2022-12-08T01:13:34.920Z,100244.88
2022-12-08T01:16:37.583Z,100245.44
2022-12-08T01:19:40.635Z,100244.69
2022-12-08T01:22:44.447Z,100253.28
2022-12-08T01:25:47.471Z,100253.91
2022-12-08T01:28:50.307Z,100258.22
2022-12-08T01:31:53.309Z,100254.69
2022-12-08T01:34:55.898Z,100244.41
2022-12-08T01:37:58.863Z,100246.63
2022-12-08T01:41:01.564Z,100238.62
2022-12-08T01:44:16.443Z,100230.91
2022-12-08T01:47:21.448Z,100237.03
2022-12-08T01:50:25.399Z,100231.16
2022-12-08T01:53:32.962Z,100225.69
2022-12-08T01:57:01.295Z,100227.66
2022-12-08T02:00:11.535Z,100222.19
2022-12-08T02:03:21.437Z,100224.84
2022-12-08T02:06:26.384Z,100215.06
2022-12-08T02:09:29.443Z,100214.53
2022-12-08T02:12:32.283Z,100214.59
2022-12-08T02:16:10.679Z,100214.31
2022-12-08T02:19:30.821Z,100208.19
2022-12-08T02:22:45.618Z,100211.34
2022-12-08T02:26:16.043Z,100202.44
2022-12-08T02:29:28.125Z,100208.50
2022-12-08T02:32:56.363Z,100203.56
2022-12-08T02:36:21.357Z,100197.94
2022-12-08T02:39:47.133Z,100193.53
2022-12-08T02:43:07.848Z,100194.53
2022-12-08T02:46:18.114Z,100184.28
2022-12-08T02:49:21.723Z,100189.09
2022-12-08T02:52:24.432Z,100188.78
2022-12-08T02:55:27.472Z,100179.97
2022-12-08T02:58:46.620Z,100176.16
2022-12-08T03:02:08.104Z,100175.13
2022-12-08T03:05:25.617Z,100171.41
2022-12-08T03:08:43.888Z,100176.09
2022-12-08T03:12:20.811Z,100171.31
2022-12-08T03:15:25.262Z,100173.28
2022-12-08T03:18:31.568Z,100153.72
2022-12-08T03:21:36.389Z,100158.87
2022-12-08T03:24:42.617Z,100157.44
2022-12-08T03:27:46.436Z,100152.41
2022-12-08T03:30:54.079Z,100156.44
2022-12-08T03:33:59.652Z,100148.03
2022-12-08T03:37:02.692Z,100144.06
2022-12-08T03:40:08.069Z,100143.06
2022-12-08T03:43:11.913Z,100145.09
2022-12-08T03:46:16.580Z,100150.62
2022-12-08T03:49:19.257Z,100137.91
2022-12-08T03:52:22.246Z,100137.62
2022-12-08T03:55:25.052Z,100141.31
2022-12-08T03:58:29.897Z,100142.59
2022-12-08T04:01:35.692Z,100142.66
2022-12-08T04:04:39.698Z,100136.94
2022-12-08T04:07:45.270Z,100134.28
2022-12-08T04:10:48.320Z,100130.38
2022-12-08T04:13:51.026Z,100127.94
2022-12-08T04:16:54.138Z,100126.97
2022-12-08T04:19:58.011Z,100120.59
2022-12-08T04:23:01.002Z,100113.72
2022-12-08T04:26:05.693Z,100119.41
2022-12-08T04:29:08.783Z,100118.97
2022-12-08T04:32:12.423Z,100117.59
2022-12-08T04:35:15.569Z,100120.34
2022-12-08T04:38:18.263Z,100115.00
2022-12-08T04:41:22.478Z,100119.34
2022-12-08T04:44:25.082Z,100125.28
2022-12-08T04:47:28.105Z,100120.50
2022-12-08T04:50:30.741Z,100121.78
2022-12-08T04:53:33.902Z,100124.00
2022-12-08T04:56:36.976Z,100121.75
2022-12-08T04:59:41.276Z,100120.00
2022-12-08T05:02:43.959Z,100116.62
2022-12-08T05:05:46.950Z,100122.78
2022-12-08T05:08:49.532Z,100119.53
2022-12-08T05:11:52.576Z,100116.34
2022-12-08T05:14:55.206Z,100125.16
2022-12-08T05:17:58.211Z,100106.81
2022-12-08T05:21:01.068Z,100110.84
2022-12-08T05:24:04.350Z,100107.78
2022-12-08T05:27:07.162Z,100110.69
2022-12-08T05:30:10.449Z,100109.25
2022-12-08T05:33:13.846Z,100103.12
2022-12-08T05:36:17.466Z,100099.62
2022-12-08T05:39:20.120Z,100100.41
2022-12-08T05:42:25.168Z,100099.13
2022-12-08T05:45:28.058Z,100100.56
2022-12-08T05:48:33.612Z,100089.44
2022-12-08T05:51:36.303Z,100097.03
2022-12-08T05:54:39.371Z,100097.66
2022-12-08T05:57:42.034Z,100095.56
2022-12-08T06:00:47.448Z,100101.84
2022-12-08T06:03:50.994Z,100097.34
2022-12-08T06:06:53.800Z,100089.97
2022-12-08T06:09:56.806Z,100085.41
2022-12-08T06:12:59.621Z,100090.41
2022-12-08T06:16:08.686Z,100102.97
2022-12-08T06:19:12.472Z,100094.16
2022-12-08T06:22:15.535Z,100104.59
2022-12-08T06:25:18.359Z,100110.41
2022-12-08T06:28:21.293Z,100119.09
2022-12-08T06:31:26.733Z,100110.88
2022-12-08T06:34:29.703Z,100115.72
2022-12-08T06:37:32.518Z,100117.19
2022-12-08T06:40:35.500Z,100113.00
2022-12-08T06:43:38.705Z,100106.88
2022-12-08T06:46:42.001Z,100113.00
2022-12-08T06:49:44.765Z,100109.75
2022-12-08T06:52:59.577Z,100108.59
2022-12-08T06:56:08.187Z,100090.72
2022-12-08T06:59:11.262Z,100098.94
2022-12-08T07:02:14.147Z,100092.19
2022-12-08T07:05:17.400Z,100089.81
2022-12-08T07:08:20.149Z,100089.97
2022-12-08T07:11:23.976Z,100094.31
2022-12-08T07:14:26.784Z,100104.13
2022-12-08T07:17:29.764Z,100098.50
2022-12-08T07:20:32.598Z,100097.69
2022-12-08T07:23:36.023Z,100107.84
2022-12-08T07:26:40.080Z,100107.00
2022-12-08T07:29:43.040Z,100112.34
2022-12-08T07:32:46.045Z,100111.19
2022-12-08T07:35:59.348Z,100107.19
2022-12-08T07:39:04.850Z,100106.69
2022-12-08T07:42:07.909Z,100110.53
2022-12-08T07:45:12.407Z,100114.53
2022-12-08T07:48:17.308Z,100108.41
2022-12-08T07:51:20.228Z,100112.41
2022-12-08T07:54:23.242Z,100108.97
2022-12-08T07:57:26.056Z,100117.50
2022-12-08T08:00:29.070Z,100123.13
2022-12-08T08:03:32.648Z,100107.47
2022-12-08T08:06:36.536Z,100111.50
2022-12-08T08:09:39.650Z,100100.19
2022-12-08T08:12:42.330Z,100104.03
2022-12-08T08:15:45.905Z,100103.19
2022-12-08T08:18:50.514Z,100104.41
2022-12-08T08:21:53.558Z,100114.06
2022-12-08T08:24:56.212Z,100098.56
2022-12-08T08:27:59.242Z,100091.75
2022-12-08T08:31:02.724Z,100092.03
2022-12-08T08:34:06.796Z,100102.34
2022-12-08T08:37:09.612Z,100109.09
2022-12-08T08:40:12.976Z,100112.19
2022-12-08T08:43:32.931Z,100108.66
2022-12-08T08:46:40.958Z,100102.81
2022-12-08T08:49:43.657Z,100111.72
2022-12-08T08:52:46.616Z,100110.91
2022-12-08T08:55:49.932Z,100106.56
2022-12-08T08:58:54.148Z,100106.56
2022-12-08T09:01:56.937Z,100110.38
2022-12-08T09:05:00.430Z,100105.66
2022-12-08T09:08:03.316Z,100099.22
2022-12-08T09:11:06.518Z,100094.31
2022-12-08T09:14:12.452Z,100088.91
2022-12-08T09:17:15.743Z,100091.78
2022-12-08T09:20:18.545Z,100087.03
2022-12-08T09:23:23.761Z,100076.81
2022-12-08T09:26:28.488Z,100084.56
2022-12-08T09:29:36.005Z,100078.75
2022-12-08T09:36:03.836Z,100074.19
2022-12-08T09:39:07.187Z,100066.47
2022-12-08T09:42:10.647Z,100071.91
2022-12-08T09:45:15.766Z,100075.13
2022-12-08T09:48:45.497Z,100060.47
2022-12-08T09:51:48.458Z,100065.47
2022-12-08T09:54:51.509Z,100054.97
2022-12-08T09:58:03.012Z,100047.53
2022-12-08T10:01:10.237Z,100037.81
2022-12-08T10:04:35.453Z,100031.78
2022-12-08T10:07:58.503Z,100029.22
2022-12-08T10:11:12.654Z,100028.34
2022-12-08T10:14:44.135Z,100027.19
2022-12-08T10:17:50.326Z,100008.41
2022-12-08T10:20:53.111Z,100013.34
2022-12-08T10:24:04.221Z,100005.69
2022-12-08T10:27:12.297Z,100008.44
2022-12-08T10:30:18.454Z,100001.84
2022-12-08T10:33:22.764Z,99984.31
2022-12-08T10:36:58.683Z,99979.75
2022-12-08T10:40:17.999Z,99975.88
2022-12-08T10:43:26.013Z,99964.31
2022-12-08T10:46:30.347Z,99969.38
2022-12-08T10:49:36.237Z,99968.44
2022-12-08T10:52:42.255Z,99966.72
2022-12-08T10:56:07.589Z,99963.66
2022-12-08T10:59:17.181Z,99965.56
2022-12-08T11:02:20.928Z,99955.41
2022-12-08T11:05:27.977Z,99956.41
2022-12-08T11:08:31.121Z,99931.47
2022-12-08T11:11:39.856Z,99933.16
2022-12-08T11:14:42.864Z,99924.00
2022-12-08T11:17:57.402Z,99906.03
2022-12-08T11:21:07.712Z,99909.69
2022-12-08T11:24:21.872Z,99903.03
2022-12-08T11:27:25.002Z,99900.06
2022-12-08T11:30:42.445Z,99908.19
2022-12-08T11:33:47.523Z,99902.03
2022-12-08T11:36:52.685Z,99900.88
2022-12-08T11:39:59.518Z,99897.66
2022-12-08T11:43:30.211Z,99894.19
2022-12-08T11:46:41.299Z,99885.06
2022-12-08T11:52:51.788Z,99896.63
2022-12-08T11:55:58.699Z,99895.06
2022-12-08T11:59:24.171Z,99902.03
2022-12-08T12:02:30.086Z,99899.94
2022-12-08T12:06:38.179Z,99890.53
2022-12-08T12:09:38.221Z,99901.53
2022-12-08T12:13:03.065Z,99899.16
2022-12-08T12:16:36.669Z,99894.81
2022-12-08T12:19:40.453Z,99900.31
2022-12-08T12:22:47.348Z,99897.00
2022-12-08T12:25:59.285Z,99893.09
2022-12-08T12:29:18.818Z,99899.63
2022-12-08T12:32:24.766Z,99894.47
2022-12-08T12:35:41.323Z,99889.66
2022-12-08T12:39:08.720Z,99897.22
2022-12-08T12:42:34.032Z,99890.12
2022-12-08T12:45:44.028Z,99885.75
2022-12-08T12:48:46.745Z,99879.13
2022-12-08T12:51:54.659Z,99881.19
2022-12-08T12:54:57.225Z,99875.78
2022-12-08T12:58:27.738Z,99872.94
2022-12-08T13:01:43.670Z,99859.19
2022-12-08T13:05:25.243Z,99861.28
2022-12-08T13:08:28.614Z,99859.19
2022-12-08T13:11:48.048Z,99866.88
2022-12-08T13:14:51.871Z,99870.41
2022-12-08T13:17:58.232Z,99871.09
2022-12-08T13:21:03.919Z,99858.03
2022-12-08T13:24:29.439Z,99863.19
2022-12-08T13:27:34.321Z,99852.22
2022-12-08T13:30:51.787Z,99860.59
2022-12-08T13:33:54.719Z,99865.75
2022-12-08T13:37:00.522Z,99866.31
2022-12-08T13:40:10.851Z,99844.09
2022-12-08T13:43:23.364Z,99860.81
2022-12-08T13:57:16.685Z,99853.47
2022-12-08T14:00:22.391Z,99844.91
2022-12-08T14:03:25.491Z,99849.13
2022-12-08T14:06:36.494Z,99841.37
2022-12-08T14:09:40.741Z,99842.16
2022-12-08T14:12:48.200Z,99845.22
2022-12-08T14:15:51.207Z,99843.75
2022-12-08T14:18:53.874Z,99844.78
2022-12-08T14:22:23.165Z,99838.84
2022-12-08T14:25:28.407Z,99845.44
2022-12-08T14:28:33.696Z,99839.50
2022-12-08T14:31:36.573Z,99840.78
2022-12-08T14:34:41.187Z,99838.81
2022-12-08T14:37:49.410Z,99830.94
2022-12-08T14:41:08.079Z,99826.94
2022-12-08T14:44:24.956Z,99826.59
2022-12-08T14:47:33.007Z,99815.25
2022-12-08T14:50:54.368Z,99818.00
2022-12-08T14:54:01.267Z,99807.94
2022-12-08T14:57:04.639Z,99806.78
2022-12-08T15:00:11.481Z,99803.47
2022-12-08T15:03:16.790Z,99806.78
2022-12-08T15:06:22.945Z,99813.66
2022-12-08T15:09:47.352Z,99818.91
2022-12-08T15:12:59.640Z,99820.53
2022-12-08T15:16:03.012Z,99820.75
2022-12-08T15:19:19.879Z,99821.78
2022-12-08T15:22:26.907Z,99822.94
2022-12-08T15:25:30.193Z,99824.97
2022-12-08T15:28:32.915Z,99826.00
2022-12-08T15:31:35.971Z,99826.13
2022-12-08T15:34:38.863Z,99832.06
2022-12-08T15:37:42.794Z,99828.75
2022-12-08T15:40:45.443Z,99827.28
2022-12-08T15:43:48.488Z,99830.16
2022-12-08T15:46:51.326Z,99829.69
2022-12-08T15:49:54.655Z,99834.63
2022-12-08T15:52:57.377Z,99845.00
2022-12-08T15:59:31.595Z,99834.13
2022-12-08T16:03:05.137Z,99840.09
2022-12-08T16:06:50.808Z,99836.53
2022-12-08T16:09:35.588Z,99841.13
2022-12-08T16:16:29.060Z,99825.66
2022-12-08T16:19:32.414Z,99816.50
2022-12-08T16:29:23.388Z,99813.41
2022-12-08T16:32:27.937Z,99802.91
2022-12-08T16:35:33.600Z,99804.25
2022-12-08T16:38:36.875Z,99798.78
2022-12-08T16:41:58.360Z,99799.03
2022-12-08T16:45:14.809Z,99811.37
2022-12-08T16:48:17.494Z,99815.72
2022-12-08T16:51:26.629Z,99808.47
2022-12-08T16:54:30.119Z,99810.56
2022-12-08T16:57:35.141Z,99815.69
2022-12-08T17:00:38.455Z,99816.97
2022-12-08T17:03:51.781Z,99816.28
2022-12-08T17:07:05.763Z,99816.31
2022-12-08T17:10:12.254Z,99812.16
2022-12-08T17:13:17.517Z,99823.50
2022-12-08T17:16:20.866Z,99822.38
2022-12-08T17:19:23.564Z,99829.44
2022-12-08T17:22:27.050Z,99839.50
2022-12-08T17:25:30.398Z,99838.25
2022-12-08T17:28:58.971Z,99839.50
2022-12-08T17:31:56.713Z,99838.28
2022-12-08T17:35:00.389Z,99833.47
2022-12-08T17:38:03.281Z,99835.28
2022-12-08T17:41:08.416Z,99834.03
2022-12-08T17:44:18.631Z,99832.87
2022-12-08T17:47:23.205Z,99824.97
2022-12-08T17:50:26.088Z,99826.44
2022-12-08T17:53:35.786Z,99821.91
2022-12-08T17:56:40.932Z,99817.44
2022-12-08T17:59:45.821Z,99817.19
2022-12-08T18:02:48.789Z,99821.56
2022-12-08T18:05:51.768Z,99813.41
2022-12-08T18:08:55.777Z,99824.06
2022-12-08T18:12:00.991Z,99814.69
2022-12-08T18:15:10.682Z,99809.94
2022-12-08T18:18:15.904Z,99807.09
2022-12-08T18:21:23.396Z,99803.53
2022-12-08T18:24:28.296Z,99809.22
2022-12-08T18:27:31.342Z,99810.25
2022-12-08T18:30:34.483Z,99796.09
2022-12-08T18:33:39.811Z,99794.75
2022-12-08T18:36:43.077Z,99784.62
2022-12-08T18:39:48.067Z,99780.63
2022-12-08T18:42:51.852Z,99783.41
2022-12-08T18:46:04.599Z,99781.22
2022-12-08T18:49:12.342Z,99780.59
2022-12-08T18:52:18.971Z,99784.25
2022-12-08T18:55:26.866Z,99779.78
2022-12-08T18:58:30.206Z,99779.22
2022-12-08T19:01:36.729Z,99768.56
2022-12-08T19:04:41.171Z,99767.78
2022-12-08T19:07:48.988Z,99773.28
2022-12-08T19:10:52.731Z,99769.25
2022-12-08T19:13:57.650Z,99775.47
2022-12-08T19:17:01.906Z,99772.81
2022-12-08T19:20:06.441Z,99771.09
2022-12-08T19:23:15.846Z,99767.34
2022-12-08T19:26:27.291Z,99757.50
2022-12-08T19:29:30.769Z,99754.19
2022-12-08T19:32:36.140Z,99758.84
2022-12-08T19:35:40.800Z,99756.94
2022-12-08T19:39:04.662Z,99764.00
2022-12-08T19:42:38.796Z,99767.91
2022-12-08T19:45:43.791Z,99761.72
2022-12-08T19:48:47.515Z,99767.19
2022-12-08T19:51:51.993Z,99765.84
2022-12-08T19:54:57.987Z,99757.37
2022-12-08T19:58:04.456Z,99757.72
2022-12-08T20:01:11.395Z,99745.59
2022-12-08T20:04:17.069Z,99746.19
2022-12-08T20:07:23.030Z,99754.53
2022-12-08T20:10:38.882Z,99753.38
2022-12-08T20:13:42.327Z,99755.66
2022-12-08T20:16:50.079Z,99751.88
2022-12-08T20:19:53.724Z,99753.69
2022-12-08T20:22:59.398Z,99760.44
2022-12-08T20:26:12.344Z,99755.88
2022-12-08T20:29:17.761Z,99756.94
2022-12-08T20:32:23.231Z,99765.72
2022-12-08T20:35:27.734Z,99762.66
2022-12-08T20:38:32.525Z,99762.19
2022-12-08T20:41:39.228Z,99763.19
2022-12-08T20:44:44.996Z,99767.66
2022-12-08T20:47:49.154Z,99767.91
2022-12-08T20:50:53.456Z,99768.56
2022-12-08T20:54:00.209Z,99762.53
2022-12-08T20:57:03.903Z,99761.84
2022-12-08T21:00:08.359Z,99767.88
2022-12-08T21:03:14.320Z,99766.44
2022-12-08T21:06:23.641Z,99770.66
2022-12-08T21:09:26.515Z,99761.38
2022-12-08T21:12:30.687Z,99769.94
2022-12-08T21:15:33.847Z,99764.47
2022-12-08T21:18:39.708Z,99770.06
2022-12-08T21:21:43.026Z,99773.50
2022-12-08T21:24:46.093Z,99766.53
2022-12-08T21:27:49.928Z,99764.25
2022-12-08T21:30:53.380Z,99774.63
2022-12-08T21:33:56.381Z,99762.31
2022-12-08T21:36:59.967Z,99768.34
2022-12-08T21:40:03.397Z,99774.88
2022-12-08T21:43:06.963Z,99773.72
2022-12-08T21:46:17.348Z,99768.56
2022-12-08T21:49:21.190Z,99765.37
2022-12-08T21:52:24.494Z,99763.19
2022-12-08T21:55:27.706Z,99770.06
2022-12-08T21:58:32.759Z,99762.53
2022-12-08T22:01:36.113Z,99769.12
2022-12-08T22:04:39.719Z,99762.06
2022-12-08T22:07:42.604Z,99766.06
2022-12-08T22:10:49.046Z,99773.63
2022-12-08T22:13:52.086Z,99779.31
2022-12-08T22:16:55.193Z,99774.16
2022-12-08T22:19:59.449Z,99765.34
2022-12-08T22:23:02.721Z,99763.28
2022-12-08T22:26:06.700Z,99766.88
2022-12-08T22:29:09.968Z,99764.91
2022-12-08T22:32:12.900Z,99763.63
2022-12-08T22:35:16.019Z,99763.75
2022-12-08T22:38:19.121Z,99769.03
2022-12-08T22:41:25.471Z,99764.34
2022-12-08T22:44:29.340Z,99760.69
2022-12-08T22:47:32.408Z,99770.63
2022-12-08T22:50:36.001Z,99765.50
2022-12-08T22:53:41.860Z,99751.78
2022-12-08T22:56:44.958Z,99752.66
2022-12-08T22:59:50.447Z,99744.09
2022-12-08T23:02:53.470Z,99753.00
2022-12-08T23:05:57.526Z,99741.91
2022-12-08T23:09:00.669Z,99751.16
2022-12-08T23:12:04.912Z,99758.22
2022-12-08T23:15:08.244Z,99765.50
2022-12-08T23:18:15.834Z,99763.69
2022-12-08T23:21:19.845Z,99763.19
2022-12-08T23:24:23.110Z,99759.09
2022-12-08T23:27:25.791Z,99755.25
2022-12-08T23:30:28.941Z,99753.41
2022-12-08T23:33:31.836Z,99756.84
2022-12-08T23:36:34.768Z,99742.53
2022-12-08T23:39:37.641Z,99754.75
2022-12-08T23:42:40.619Z,99748.72
2022-12-08T23:45:43.406Z,99744.72
2022-12-08T23:48:47.022Z,99742.91
2022-12-08T23:51:50.867Z,99740.63
2022-12-08T23:54:54.778Z,99738.47
2022-12-08T23:57:57.437Z,99750.69
